Time;durP1;ratioP1;P1;durP2;ratioP2;P2;SDS_P1;SDS_P2;PMS_P1;PMS_P2;Temp;Humidity;BMP_temperature;BMP_pressure;BME280_temperature;BME280_humidity;BME280_pressure;Samples;Min_cycle;Max_cycle;Signal;HPM_P1;HPM_P2
2022/06/14 00:00:55;;;;;;;5.20;3.25;;;;;;;15.44;63.35;93278.38;2048504;70;20150;-70
2022/06/14 00:03:32;;;;;;;5.00;3.42;;;;;;;15.41;63.30;93283.22;2046554;70;20602;-71
2022/06/14 00:06:02;;;;;;;4.45;3.00;;;;;;;15.77;61.23;93277.25;2047767;70;20539;-70
2022/06/14 00:08:28;;;;;;;6.18;3.10;;;;;;;15.62;61.71;93282.16;2048499;70;20523;-70
2022/06/14 00:10:57;;;;;;;9.30;3.20;;;;;;;15.37;63.18;93280.16;2061548;69;20139;-69
2022/06/14 00:13:23;;;;;;;5.70;3.05;;;;;;;15.30;63.42;93286.88;2048203;70;20594;-70
2022/06/14 00:15:49;;;;;;;6.93;3.40;;;;;;;15.34;62.60;93292.75;2048259;70;20178;-69
2022/06/14 00:18:17;;;;;;;5.43;3.25;;;;;;;15.36;63.14;93284.38;2048298;70;20237;-70
2022/06/14 00:20:45;;;;;;;7.88;2.92;;;;;;;15.58;60.93;93295.41;2046731;70;20209;-70
2022/06/14 00:23:11;;;;;;;6.35;3.00;;;;;;;15.24;63.23;93283.72;2048037;70;20162;-71
2022/06/14 00:25:41;;;;;;;4.97;3.20;;;;;;;15.47;61.67;93292.03;2048345;70;20146;-71
2022/06/14 00:28:09;;;;;;;7.22;3.40;;;;;;;15.44;61.74;93295.41;2048406;70;20673;-71
2022/06/14 00:30:36;;;;;;;4.53;3.20;;;;;;;15.33;62.30;93282.06;2048203;70;20211;-70
2022/06/14 00:33:02;;;;;;;4.50;2.90;;;;;;;15.31;62.60;93287.63;2047284;70;20149;-70
2022/06/14 00:35:28;;;;;;;8.70;3.20;;;;;;;15.36;61.74;93284.38;2045091;70;20613;-73
2022/06/14 00:37:53;;;;;;;3.72;3.00;;;;;;;15.18;62.69;93289.81;2045073;70;20143;-71
2022/06/14 00:40:26;;;;;;;6.35;3.15;;;;;;;15.24;62.56;93287.28;2044970;70;20615;-70
2022/06/14 00:42:52;;;;;;;6.88;3.15;;;;;;;15.16;62.53;93280.44;2045458;70;20617;-70
2022/06/14 00:45:17;;;;;;;4.82;2.92;;;;;;;15.25;61.82;93288.75;2044561;70;20202;-70
2022/06/14 00:47:48;;;;;;;6.85;3.28;;;;;;;15.09;63.32;93287.91;2048113;70;20127;-70
2022/06/14 00:50:22;;;;;;;5.88;3.10;;;;;;;15.02;63.15;93291.78;2047990;70;20190;-70
2022/06/14 00:52:58;;;;;;;6.75;2.88;;;;;;;15.04;62.26;93294.00;2048140;70;20194;-70
2022/06/14 00:55:36;;;;;;;7.53;3.20;;;;;;;14.99;62.83;93290.94;2048142;70;20190;-71
2022/06/14 00:58:13;;;;;;;4.30;2.83;;;;;;;15.13;62.67;93284.56;2048285;70;20135;-71
2022/06/14 01:00:46;;;;;;;6.90;3.20;;;;;;;15.07;62.60;93299.13;2048054;70;20154;-70
2022/06/14 01:03:24;;;;;;;3.85;2.90;;;;;;;15.05;62.47;93296.19;2047648;70;20159;-71
2022/06/14 01:06:16;;;;;;;9.15;3.33;;;;;;;14.92;62.96;93279.91;2042127;70;20267;-71
2022/06/14 01:08:56;;;;;;;6.22;3.30;;;;;;;15.07;62.08;93287.78;2048394;70;20182;-71
2022/06/14 01:11:52;;;;;;;8.43;3.25;;;;;;;14.96;62.28;93291.47;2045184;70;20150;-70
2022/06/14 01:14:24;;;;;;;4.38;3.28;;;;;;;14.85;62.65;93293.03;2047972;70;20269;-71
2022/06/14 01:16:51;;;;;;;5.00;2.90;;;;;;;15.03;61.73;93284.00;2048658;70;20151;-71
2022/06/14 01:19:21;;;;;;;4.68;2.78;;;;;;;15.06;61.35;93286.31;2048827;70;20154;-71
2022/06/14 01:22:03;;;;;;;6.10;3.15;;;;;;;14.96;61.53;93278.00;2044782;70;20167;-71
2022/06/14 01:24:30;;;;;;;7.18;3.22;;;;;;;14.94;61.69;93277.91;2045691;70;20250;-71
2022/06/14 01:26:59;;;;;;;5.50;3.00;;;;;;;14.99;61.69;93284.53;2045545;69;20220;-71
2022/06/14 01:29:27;;;;;;;6.25;3.10;;;;;;;15.09;61.08;93282.25;2045589;70;20242;-71
2022/06/14 01:31:57;;;;;;;8.73;3.25;;;;;;;15.04;61.71;93280.56;2045754;70;20163;-72
2022/06/14 01:34:24;;;;;;;4.35;2.90;;;;;;;14.61;63.32;93283.91;2048023;70;20166;-71
2022/06/14 01:36:52;;;;;;;4.35;3.20;;;;;;;14.58;63.71;93292.94;2046606;70;20234;-71
2022/06/14 01:39:18;;;;;;;6.38;3.20;;;;;;;14.81;62.49;93289.22;2045526;70;20187;-71
2022/06/14 01:41:55;;;;;;;5.90;3.60;;;;;;;14.80;62.63;93284.91;2045454;70;20155;-71
2022/06/14 01:44:36;;;;;;;5.30;3.10;;;;;;;14.66;62.91;93279.19;2047880;70;20619;-71
2022/06/14 01:47:17;;;;;;;6.47;3.10;;;;;;;14.71;63.05;93292.97;2046081;70;20202;-71
2022/06/14 01:53:50;;;;;;;3.55;3.25;;;;;;;14.65;63.18;93272.78;2037700;70;20157;-72
2022/06/14 01:57:03;;;;;;;6.13;2.72;;;;;;;14.70;62.67;93285.81;2048915;70;20145;-72
2022/06/14 01:59:41;;;;;;;6.55;3.20;;;;;;;14.64;63.45;93285.50;2048874;70;20138;-71
2022/06/14 02:02:13;;;;;;;4.93;3.08;;;;;;;14.61;63.52;93280.31;2048296;70;20147;-71
2022/06/14 02:05:06;;;;;;;4.00;3.15;;;;;;;14.59;62.85;93275.28;2048767;70;20153;-71
2022/06/14 02:07:48;;;;;;;4.78;3.00;;;;;;;14.70;61.75;93271.66;2048821;70;20182;-72
2022/06/14 02:10:16;;;;;;;4.75;3.17;;;;;;;14.67;62.35;93272.19;2048445;69;20153;-71
2022/06/14 02:13:05;;;;;;;4.50;3.05;;;;;;;14.73;61.78;93281.75;2048689;70;20146;-72
2022/06/14 02:15:30;;;;;;;4.93;3.13;;;;;;;14.72;61.93;93273.88;2037406;70;20187;-70
2022/06/14 02:18:19;;;;;;;6.85;3.40;;;;;;;14.71;61.36;93273.13;2037217;70;20325;-72
2022/06/14 02:20:58;;;;;;;5.63;3.25;;;;;;;14.74;61.78;93280.38;2039252;70;20182;-70
2022/06/14 02:23:25;;;;;;;5.57;3.30;;;;;;;14.67;62.56;93275.75;2037492;70;20167;-70
2022/06/14 02:26:15;;;;;;;7.95;3.17;;;;;;;14.46;62.95;93271.03;2037528;70;20195;-70
2022/06/14 02:28:49;;;;;;;5.28;3.58;;;;;;;14.19;63.38;93270.91;2037454;70;20224;-70
2022/06/14 02:31:21;;;;;;;8.68;3.20;;;;;;;14.37;63.33;93271.19;2037516;70;20173;-70
2022/06/14 02:34:26;;;;;;;7.50;3.42;;;;;;;14.37;63.36;93274.75;2036866;70;20148;-70
2022/06/14 02:37:01;;;;;;;4.40;3.25;;;;;;;14.33;63.56;93266.03;2034261;70;20148;-70
2022/06/14 02:39:34;;;;;;;4.68;3.17;;;;;;;14.12;64.19;93275.50;2034073;70;20138;-70
2022/06/14 02:42:09;;;;;;;5.88;3.80;;;;;;;14.26;64.12;93283.31;2034143;70;20230;-70
2022/06/14 02:44:48;;;;;;;7.38;3.90;;;;;;;14.28;63.77;93281.34;2034252;70;20148;-70
2022/06/14 02:47:23;;;;;;;6.25;3.30;;;;;;;14.22;64.09;93276.06;2033791;70;20160;-71
2022/06/14 02:50:03;;;;;;;5.15;3.50;;;;;;;14.19;64.34;93276.56;2034242;70;20195;-70
2022/06/14 02:52:46;;;;;;;6.50;3.15;;;;;;;14.45;61.04;93280.16;2039369;70;20208;-71
2022/06/14 02:55:12;;;;;;;7.18;3.17;;;;;;;14.26;63.22;93272.00;2041381;70;20151;-72
2022/06/14 02:57:54;;;;;;;6.63;3.58;;;;;;;13.89;65.37;93272.75;2041311;70;20225;-71
2022/06/14 03:00:43;;;;;;;6.57;3.35;;;;;;;14.10;64.64;93268.97;2041148;70;20250;-72
2022/06/14 03:03:17;;;;;;;5.43;3.38;;;;;;;13.98;65.38;93269.75;2041329;70;20194;-71
2022/06/14 03:05:55;;;;;;;5.68;3.25;;;;;;;14.07;64.52;93264.56;2041311;70;20570;-71
2022/06/14 03:08:23;;;;;;;6.35;3.40;;;;;;;14.17;63.98;93267.97;2041334;70;20220;-72
2022/06/14 03:10:51;;;;;;;9.98;3.45;;;;;;;14.03;64.33;93276.41;2041187;70;20135;-71
2022/06/14 03:13:20;;;;;;;5.07;3.50;;;;;;;14.10;63.61;93271.81;2044508;70;20159;-71
2022/06/14 03:15:55;;;;;;;6.00;3.35;;;;;;;14.05;64.51;93276.50;2045216;70;20148;-71
2022/06/14 03:18:37;;;;;;;8.35;3.70;;;;;;;13.96;65.22;93275.28;2045057;70;20162;-71
2022/06/14 03:21:34;;;;;;;7.57;4.05;;;;;;;13.98;64.69;93266.94;2045320;70;20159;-72
2022/06/14 03:24:35;;;;;;;6.65;4.00;;;;;;;13.89;64.27;93270.66;2045381;70;20248;-72
2022/06/14 03:27:29;;;;;;;5.75;3.83;;;;;;;13.86;65.41;93274.72;2034784;70;20276;-72
2022/06/14 03:30:07;;;;;;;8.65;3.90;;;;;;;13.83;65.30;93269.56;2034525;70;20350;-72
2022/06/14 03:32:43;;;;;;;5.32;3.88;;;;;;;13.80;65.59;93270.81;2033748;70;20234;-72
2022/06/14 03:35:15;;;;;;;8.60;3.92;;;;;;;13.75;65.59;93274.75;2031894;70;20248;-72
2022/06/14 03:37:41;;;;;;;6.77;3.80;;;;;;;13.74;65.32;93279.66;2034457;70;20206;-72
2022/06/14 03:40:14;;;;;;;6.35;3.78;;;;;;;13.86;64.03;93274.72;2031799;70;20669;-72
2022/06/14 03:42:41;;;;;;;7.82;3.47;;;;;;;13.80;65.75;93282.13;2034475;70;20234;-73
2022/06/14 03:45:09;;;;;;;6.03;3.60;;;;;;;13.88;65.49;93274.84;2034669;70;20164;-72
2022/06/14 03:47:35;;;;;;;5.93;3.42;;;;;;;13.84;64.72;93271.06;2034518;70;20278;-72
2022/06/14 03:50:24;;;;;;;5.97;3.40;;;;;;;13.92;64.43;93272.22;2032485;70;20235;-71
2022/06/14 03:53:03;;;;;;;4.55;3.45;;;;;;;13.97;62.83;93267.53;2031505;70;20160;-72
2022/06/14 03:55:35;;;;;;;5.05;3.35;;;;;;;13.88;64.45;93269.19;2031576;70;20314;-72
2022/06/14 03:58:38;;;;;;;5.65;3.30;;;;;;;13.89;65.13;93278.41;2031433;70;20164;-71
2022/06/14 04:01:09;;;;;;;7.57;3.50;;;;;;;13.93;64.45;93273.00;2033137;70;20140;-72
2022/06/14 04:04:13;;;;;;;5.82;3.40;;;;;;;13.90;63.30;93266.47;2041340;70;20163;-71
2022/06/14 04:07:17;;;;;;;7.13;3.33;;;;;;;13.95;63.52;93273.81;2041583;70;20146;-71
2022/06/14 04:09:50;;;;;;;5.00;3.30;;;;;;;13.90;64.24;93277.78;2044596;70;20216;-71
2022/06/14 04:12:25;;;;;;;5.30;3.20;;;;;;;13.87;64.85;93270.53;2045302;70;20615;-72
2022/06/14 04:15:00;;;;;;;5.20;3.03;;;;;;;13.88;64.23;93280.50;2045293;70;20170;-70
2022/06/14 04:17:42;;;;;;;5.60;3.30;;;;;;;13.87;65.32;93279.00;2048294;70;20157;-72
2022/06/14 04:20:32;;;;;;;5.45;3.35;;;;;;;13.84;65.36;93279.53;2048150;70;20174;-71
2022/06/14 04:23:26;;;;;;;4.68;2.92;;;;;;;14.05;62.03;93273.66;2048522;70;20160;-72
2022/06/14 04:25:54;;;;;;;8.20;3.58;;;;;;;14.03;63.96;93284.88;2048340;70;20171;-71
2022/06/14 04:28:35;;;;;;;4.90;3.38;;;;;;;13.98;63.46;93288.84;2048506;70;20242;-72
2022/06/14 04:31:28;;;;;;;7.10;3.40;;;;;;;13.94;63.38;93283.69;2045561;70;20508;-72
2022/06/14 04:34:30;;;;;;;;;;;;;;;13.98;63.67;93272.59;2048794;70;20158;-72
2022/06/14 04:37:11;;;;;;;5.22;3.50;;;;;;;13.99;63.80;93274.06;2050373;70;20043;-72
2022/06/14 04:39:47;;;;;;;7.68;3.28;;;;;;;14.07;64.00;93264.56;2050220;70;20497;-72
2022/06/14 04:42:25;;;;;;;9.73;3.88;;;;;;;13.87;64.62;93267.69;2050287;70;20154;-71
2022/06/14 04:45:05;;;;;;;4.03;2.90;;;;;;;13.90;63.94;93268.56;2050175;70;20154;-71
2022/06/14 04:47:33;;;;;;;4.03;3.20;;;;;;;14.09;64.04;93264.69;2053195;70;20683;-71
2022/06/14 04:50:07;;;;;;;5.18;3.35;;;;;;;14.09;63.67;93270.34;2051849;70;20241;-72
2022/06/14 04:52:41;;;;;;;6.95;3.20;;;;;;;14.07;63.26;93264.56;2052972;70;20521;-72
2022/06/14 04:55:16;;;;;;;3.83;3.10;;;;;;;14.09;63.33;93267.50;2054317;69;20150;-72
2022/06/14 04:57:46;;;;;;;6.53;3.33;;;;;;;14.06;64.87;93263.81;2054131;70;20650;-72
2022/06/14 05:00:17;;;;;;;6.72;3.38;;;;;;;14.13;62.60;93268.47;2051745;69;20321;-72
2022/06/14 05:02:51;;;;;;;5.20;3.30;;;;;;;13.96;63.86;93263.25;2050782;70;20142;-71
2022/06/14 05:05:22;;;;;;;5.25;3.33;;;;;;;14.15;61.79;93260.09;2050913;69;20154;-72
2022/06/14 05:07:55;;;;;;;7.10;3.50;;;;;;;14.07;62.63;93265.31;2050470;70;20189;-72
2022/06/14 05:10:36;;;;;;;6.50;3.35;;;;;;;13.98;62.57;93266.19;2049034;70;20561;-71
2022/06/14 05:13:20;;;;;;;4.90;3.67;;;;;;;14.05;62.34;93267.28;2045488;70;20171;-72
2022/06/14 05:16:11;;;;;;;5.20;3.42;;;;;;;14.09;62.44;93259.00;2045382;70;20214;-72
2022/06/14 05:18:44;;;;;;;5.07;3.33;;;;;;;14.02;62.73;93260.78;2039484;70;20186;-71
2022/06/14 05:21:18;;;;;;;6.97;3.45;;;;;;;14.02;62.98;93260.78;2046313;70;20197;-71
2022/06/14 05:23:50;;;;;;;4.60;2.80;;;;;;;14.07;63.73;93262.47;2048862;70;20199;-72
2022/06/14 05:26:56;;;;;;;3.95;3.10;;;;;;;14.06;64.09;93258.16;2048777;70;20155;-72
2022/06/14 05:29:29;;;;;;;6.15;3.35;;;;;;;13.97;63.09;93265.47;2045485;70;20244;-72
2022/06/14 05:32:13;;;;;;;5.15;2.97;;;;;;;14.11;64.19;93261.94;2045358;70;20182;-71
2022/06/14 05:35:13;;;;;;;5.47;3.00;;;;;;;13.99;64.17;93262.75;2045556;70;20220;-71
2022/06/14 05:37:51;;;;;;;3.67;2.90;;;;;;;14.05;64.23;93258.78;2046129;70;20186;-71
2022/06/14 05:40:25;;;;;;;4.13;3.05;;;;;;;14.17;64.04;93265.13;2045398;70;20143;-70
2022/06/14 05:43:02;;;;;;;5.82;3.88;;;;;;;14.07;63.83;93253.25;2045451;70;20155;-70
2022/06/14 05:45:31;;;;;;;4.57;2.95;;;;;;;14.26;61.68;93252.19;2045455;70;20660;-72
2022/06/14 05:48:06;;;;;;;7.38;3.50;;;;;;;14.22;62.68;93253.41;2046952;70;20150;-71
2022/06/14 05:50:38;;;;;;;6.60;3.20;;;;;;;14.19;63.27;93251.81;2045564;70;20178;-71
2022/06/14 05:53:11;;;;;;;6.65;3.50;;;;;;;14.24;63.24;93249.94;2045694;70;20155;-71
2022/06/14 05:55:50;;;;;;;7.05;3.53;;;;;;;14.22;63.12;93250.59;2045400;70;20185;-71
2022/06/14 05:58:54;;;;;;;7.03;3.35;;;;;;;14.26;62.26;93252.19;2045343;70;20159;-70
2022/06/14 06:01:44;;;;;;;5.00;3.45;;;;;;;14.05;63.92;93255.94;2045610;70;20165;-70
2022/06/14 06:04:18;;;;;;;4.22;3.30;;;;;;;14.15;63.49;93253.69;2045488;70;20135;-73
2022/06/14 06:06:48;;;;;;;4.38;3.30;;;;;;;14.05;64.44;93253.13;2046588;70;20776;-73
2022/06/14 06:09:22;;;;;;;6.40;3.42;;;;;;;14.22;64.03;93252.69;2045534;70;20591;-72
2022/06/14 06:11:54;;;;;;;4.70;3.10;;;;;;;14.20;63.85;93252.56;2048839;70;20595;-73
2022/06/14 06:14:46;;;;;;;5.73;3.50;;;;;;;14.18;64.87;93260.94;2048815;70;20182;-73
2022/06/14 06:17:19;;;;;;;5.55;3.55;;;;;;;14.35;63.49;93254.09;2048466;70;20182;-73
2022/06/14 06:20:04;;;;;;;5.15;3.47;;;;;;;14.43;63.81;93252.47;2048654;70;20151;-72
2022/06/14 06:22:41;;;;;;;4.82;3.30;;;;;;;14.56;63.17;93247.47;2048721;70;20150;-71
2022/06/14 06:25:32;;;;;;;5.70;3.28;;;;;;;14.63;63.80;93252.13;2048528;70;20595;-73
2022/06/14 06:27:58;;;;;;;5.90;3.20;;;;;;;14.74;63.63;93252.03;2048323;70;20153;-73
2022/06/14 06:30:37;;;;;;;6.95;3.45;;;;;;;14.77;64.20;93244.38;2048500;70;20146;-73
2022/06/14 06:33:03;;;;;;;9.18;3.72;;;;;;;14.89;63.11;93249.97;2048616;70;20155;-73
2022/06/14 06:35:38;;;;;;;4.68;3.20;;;;;;;15.01;64.33;93236.44;2048701;70;20708;-73
2022/06/14 06:38:17;;;;;;;6.47;3.42;;;;;;;15.10;63.20;93229.09;2047406;69;20158;-73
2022/06/14 06:43:38;;;;;;;6.07;3.40;;;;;;;15.28;62.29;93235.72;2045434;70;20197;-74
2022/06/14 06:46:11;;;;;;;4.80;3.15;;;;;;;15.29;61.25;93236.47;2045596;70;20687;-73
2022/06/14 06:48:43;;;;;;;6.28;3.30;;;;;;;15.32;61.95;93229.53;2045637;70;20139;-73
2022/06/14 06:51:18;;;;;;;4.18;3.28;;;;;;;15.45;61.66;93229.53;2047895;70;20166;-74
2022/06/14 06:54:03;;;;;;;5.20;3.28;;;;;;;15.50;62.46;93231.19;2045298;70;20170;-73
2022/06/14 06:56:34;;;;;;;5.95;3.05;;;;;;;15.51;63.60;93224.16;2048932;70;20162;-74
2022/06/14 06:59:14;;;;;;;8.35;3.10;;;;;;;15.66;61.70;93219.94;2049028;70;20206;-72
2022/06/14 07:01:41;;;;;;;5.32;3.17;;;;;;;15.75;63.03;93213.31;2045569;70;20155;-74
2022/06/14 07:04:19;;;;;;;5.00;3.15;;;;;;;15.82;62.48;93222.16;2048757;70;20609;-74
2022/06/14 07:06:52;;;;;;;5.35;3.42;;;;;;;15.89;61.82;93216.13;2048913;70;20138;-74
2022/06/14 07:09:26;;;;;;;7.22;3.58;;;;;;;15.96;61.32;93217.91;2048408;70;20154;-72
2022/06/14 07:12:01;;;;;;;3.88;3.10;;;;;;;16.03;62.97;93216.09;2047550;70;20139;-72
2022/06/14 07:14:47;;;;;;;5.18;3.70;;;;;;;16.11;63.04;93213.63;2045158;70;20146;-72
2022/06/14 07:17:35;;;;;;;4.47;3.47;;;;;;;16.20;62.55;93211.94;2048786;70;20153;-74
2022/06/14 07:20:08;;;;;;;4.78;3.30;;;;;;;16.24;62.18;93209.28;2048871;70;20170;-72
2022/06/14 07:22:52;;;;;;;4.53;3.40;;;;;;;16.32;64.05;93208.94;2048873;70;20190;-72
2022/06/14 07:25:46;;;;;;;6.05;3.30;;;;;;;16.45;63.91;93208.16;2047088;70;20531;-72
2022/06/14 07:28:20;;;;;;;5.45;3.30;;;;;;;16.56;64.99;93204.41;2048852;70;20243;-72
2022/06/14 07:30:50;;;;;;;4.90;3.45;;;;;;;16.63;64.16;93200.47;2048739;70;20623;-72
2022/06/14 07:33:22;;;;;;;4.72;3.45;;;;;;;16.69;63.63;93197.19;2048700;70;20155;-72
2022/06/14 07:36:00;;;;;;;4.93;3.17;;;;;;;16.75;62.78;93197.47;2048991;70;20154;-73
2022/06/14 07:38:46;;;;;;;5.38;3.50;;;;;;;16.84;63.27;93190.78;2048863;70;20593;-75
2022/06/14 07:41:11;;;;;;;7.38;3.60;;;;;;;16.86;60.66;93198.66;2045516;70;20162;-73
2022/06/14 07:43:57;;;;;;;5.25;3.30;;;;;;;16.97;59.85;93189.97;2046742;70;20146;-73
2022/06/14 07:46:47;;;;;;;6.45;3.40;;;;;;;17.03;57.26;93181.69;2048747;70;20147;-73
2022/06/14 07:49:45;;;;;;;3.92;3.53;;;;;;;17.09;56.85;93180.50;2041695;70;20143;-73
2022/06/14 07:52:30;;;;;;;4.85;3.53;;;;;;;17.20;55.42;93177.47;2047615;70;20150;-73
2022/06/14 07:55:11;;;;;;;5.50;3.28;;;;;;;17.33;56.33;93180.84;2046315;70;20172;-73
2022/06/14 07:57:41;;;;;;;6.97;3.50;;;;;;;17.47;56.36;93185.03;2048718;70;20611;-72
2022/06/14 08:03:09;;;;;;;4.55;3.38;;;;;;;17.75;57.86;93173.41;2045720;70;20173;-73
2022/06/14 08:05:39;;;;;;;8.68;3.47;;;;;;;17.83;57.24;93168.06;2046958;70;20178;-73
2022/06/14 08:08:08;;;;;;;3.97;3.38;;;;;;;17.94;55.67;93160.66;2048188;70;20202;-73
2022/06/14 08:10:42;;;;;;;5.28;3.40;;;;;;;18.14;56.96;93161.47;2048216;70;20535;-73
2022/06/14 08:13:15;;;;;;;5.18;3.30;;;;;;;18.46;57.04;93152.72;2047467;69;20208;-73
2022/06/14 08:15:51;;;;;;;6.78;3.50;;;;;;;18.57;54.64;93151.75;2048025;70;20138;-73
2022/06/14 08:18:35;;;;;;;6.15;3.50;;;;;;;18.80;56.97;93150.50;2048807;70;20150;-73
2022/06/14 08:21:04;;;;;;;4.63;3.30;;;;;;;19.07;51.57;93148.63;2048784;70;20177;-73
2022/06/14 08:23:38;;;;;;;7.65;3.10;;;;;;;19.36;47.66;93138.94;2048175;70;20213;-74
2022/06/14 08:26:27;;;;;;;7.03;3.40;;;;;;;19.79;48.47;93138.31;2048202;70;20150;-73
2022/06/14 08:28:55;;;;;;;5.13;3.47;;;;;;;19.95;48.24;93138.84;2048733;70;20174;-74
2022/06/14 08:31:21;;;;;;;6.72;3.65;;;;;;;20.31;48.43;93136.44;2048644;70;20643;-73
2022/06/14 08:34:10;;;;;;;6.20;3.25;;;;;;;20.34;49.13;93125.78;2048622;70;20239;-74
2022/06/14 08:36:53;;;;;;;6.75;3.17;;;;;;;20.67;45.29;93133.28;2048722;70;20159;-74
2022/06/14 08:39:28;;;;;;;4.50;2.80;;;;;;;21.12;45.71;93143.19;2046504;70;20179;-74
2022/06/14 08:42:07;;;;;;;6.40;3.10;;;;;;;21.57;44.23;93138.69;2045299;70;20155;-74
2022/06/14 08:44:39;;;;;;;4.28;3.10;;;;;;;22.07;47.54;93139.28;2039396;70;20170;-75
2022/06/14 08:47:22;;;;;;;4.70;3.08;;;;;;;21.95;43.84;93138.28;2045279;70;20173;-74
2022/06/14 08:50:13;;;;;;;6.05;2.97;;;;;;;21.94;42.75;93128.19;2045552;70;20194;-74
2022/06/14 08:52:45;;;;;;;4.15;2.50;;;;;;;22.07;41.16;93130.69;2045315;70;20147;-74
2022/06/14 08:55:26;;;;;;;5.03;2.80;;;;;;;22.84;43.60;93131.78;2048515;70;20134;-73
2022/06/14 08:58:17;;;;;;;3.65;2.65;;;;;;;23.46;42.96;93128.06;2045390;70;20171;-74
2022/06/14 09:01:09;;;;;;;6.85;3.17;;;;;;;23.75;41.47;93125.75;2048519;70;20234;-74
2022/06/14 09:03:43;;;;;;;4.28;2.80;;;;;;;23.99;39.59;93131.22;2048439;70;20151;-73
2022/06/14 09:06:27;;;;;;;5.70;2.67;;;;;;;24.21;42.08;93125.84;2048559;70;20237;-73
2022/06/14 09:09:27;;;;;;;4.93;2.80;;;;;;;24.51;42.56;93119.91;2046059;70;20171;-73
2022/06/14 09:12:17;;;;;;;4.85;2.90;;;;;;;24.66;42.53;93114.34;2045302;70;20610;-73
2022/06/14 09:15:08;;;;;;;4.45;2.78;;;;;;;24.50;38.26;93111.94;2047649;70;20497;-73
2022/06/14 09:17:44;;;;;;;7.55;2.80;;;;;;;25.09;40.02;93101.28;2048680;70;20154;-74
2022/06/14 09:20:42;;;;;;;4.22;2.55;;;;;;;25.10;38.37;93102.72;2045288;70;20219;-74
2022/06/14 09:23:17;;;;;;;6.65;2.70;;;;;;;25.36;37.46;93105.22;2047066;70;20151;-73
2022/06/14 09:25:49;;;;;;;5.07;2.40;;;;;;;25.18;37.75;93091.31;2045322;69;20230;-73
2022/06/14 09:28:52;;;;;;;4.30;3.00;;;;;;;25.24;38.33;93093.53;2045399;70;20580;-73
2022/06/14 09:31:36;;;;;;;4.30;2.63;;;;;;;24.91;37.97;93089.50;2045245;70;20143;-74
2022/06/14 09:34:20;;;;;;;5.32;2.53;;;;;;;25.24;36.34;93087.78;2045249;70;20151;-73
2022/06/14 09:37:04;;;;;;;4.07;2.55;;;;;;;25.20;37.83;93084.84;2045390;70;20154;-72
2022/06/14 09:39:42;;;;;;;3.35;2.58;;;;;;;25.36;36.49;93085.06;2046943;70;20146;-74
2022/06/14 09:42:37;;;;;;;7.85;2.75;;;;;;;25.21;37.18;93077.69;2049085;70;20625;-74
2022/06/14 09:45:20;;;;;;;3.65;2.35;;;;;;;26.15;37.98;93072.88;2046205;70;20216;-74
2022/06/14 09:48:02;;;;;;;4.03;2.50;;;;;;;26.40;36.58;93076.69;2045862;70;20575;-75
2022/06/14 09:51:22;;;;;;;4.15;2.30;;;;;;;26.12;36.41;93066.38;2045907;70;20596;-75
2022/06/14 09:54:05;;;;;;;4.00;2.35;;;;;;;26.75;36.15;93069.72;2040812;70;20170;-75
2022/06/14 09:56:34;;;;;;;4.22;2.42;;;;;;;26.54;34.90;93063.13;2043474;70;20147;-75
2022/06/14 09:59:39;;;;;;;4.15;2.10;;;;;;;27.21;35.32;93057.00;2045517;70;20147;-75
2022/06/14 10:02:12;;;;;;;4.70;2.38;;;;;;;27.76;33.79;93065.13;2045112;70;20154;-74
2022/06/14 10:04:49;;;;;;;5.03;2.30;;;;;;;27.60;34.17;93062.91;2045406;70;20234;-73
2022/06/14 10:07:34;;;;;;;4.15;2.20;;;;;;;28.47;33.78;93061.63;2046554;70;20163;-74
2022/06/14 10:10:28;;;;;;;2.85;2.22;;;;;;;28.53;33.96;93050.75;2048156;70;20183;-73
2022/06/14 10:13:29;;;;;;;3.38;2.30;;;;;;;28.12;32.62;93044.94;2045812;70;20151;-75
2022/06/14 10:16:17;;;;;;;4.78;2.17;;;;;;;28.70;32.29;93036.97;2050981;70;20179;-75
2022/06/14 10:18:48;;;;;;;3.30;2.08;;;;;;;28.71;31.23;93040.59;2048220;70;20201;-74
2022/06/14 10:21:25;;;;;;;5.35;2.45;;;;;;;28.99;29.75;93036.91;2045600;70;20207;-73
2022/06/14 10:24:15;;;;;;;4.55;2.30;;;;;;;28.20;30.91;93034.81;2034596;70;20144;-75
2022/06/14 10:29:45;;;;;;;4.10;2.20;;;;;;;30.16;30.98;93019.69;2035250;70;20163;-73
2022/06/14 10:32:29;;;;;;;3.72;2.20;;;;;;;30.45;30.37;93028.88;2034979;70;20510;-73
2022/06/14 10:35:32;;;;;;;3.05;2.03;;;;;;;31.17;30.62;93023.81;2035158;70;20246;-74
2022/06/14 10:38:10;;;;;;;4.72;1.90;;;;;;;31.91;30.10;93019.97;2034746;70;20152;-74
2022/06/14 10:40:51;;;;;;;4.53;2.10;;;;;;;31.73;27.96;93018.75;2035033;70;20182;-74
2022/06/14 10:43:48;;;;;;;2.43;1.80;;;;;;;31.80;26.47;93020.09;2035048;70;20179;-73
2022/06/14 10:46:39;;;;;;;5.60;2.00;;;;;;;32.10;26.69;93021.16;2033627;70;20290;-76
2022/06/14 10:49:23;;;;;;;3.78;1.85;;;;;;;33.07;27.41;93012.97;2033776;70;20573;-76
2022/06/14 10:52:37;;;;;;;4.63;1.80;;;;;;;33.28;26.38;93009.66;2045439;70;20737;-73
2022/06/14 10:55:21;;;;;;;1.60;1.50;;;;;;;34.41;24.20;92999.88;2043205;69;20159;-74
2022/06/14 10:57:55;;;;;;;3.90;1.60;;;;;;;35.59;22.93;93007.75;2048333;70;20520;-72
2022/06/14 11:00:41;;;;;;;2.38;1.75;;;;;;;37.88;21.75;93003.88;2047689;70;20225;-76
2022/06/14 11:03:29;;;;;;;2.95;1.60;;;;;;;38.71;20.19;93008.69;2048379;70;20217;-75
2022/06/14 11:06:07;;;;;;;1.50;1.40;;;;;;;41.66;18.11;93011.19;2048674;70;20500;-73
2022/06/14 11:08:45;;;;;;;1.65;1.40;;;;;;;43.36;17.43;93009.09;2046908;70;20139;-73
2022/06/14 11:11:21;;;;;;;1.65;1.23;;;;;;;46.04;14.60;93009.66;2047505;70;20151;-73
2022/06/14 11:13:59;;;;;;;1.67;1.45;;;;;;;44.30;15.45;93009.28;2048542;70;20603;-75
2022/06/14 11:16:33;;;;;;;3.13;1.38;;;;;;;45.75;14.03;93004.97;2048668;70;20151;-73
2022/06/14 11:19:30;;;;;;;2.10;1.30;;;;;;;46.34;14.43;92998.59;2048378;70;20178;-75
2022/06/14 11:22:22;;;;;;;1.58;1.10;;;;;;;44.08;14.02;92989.94;2048267;70;20246;-73
2022/06/14 11:24:57;;;;;;;5.97;1.38;;;;;;;45.06;13.71;92984.38;2048174;70;20195;-73
2022/06/14 11:27:42;;;;;;;1.40;1.20;;;;;;;46.35;13.87;92985.13;2045575;70;20149;-74
2022/06/14 11:30:35;;;;;;;2.10;1.08;;;;;;;49.64;11.67;92995.28;2045396;70;20163;-74
2022/06/14 11:33:16;;;;;;;3.10;1.00;;;;;;;46.38;12.87;92977.47;2045513;70;20179;-73
2022/06/14 11:35:51;;;;;;;2.47;1.23;;;;;;;49.69;11.81;92986.66;2045124;70;20143;-74
2022/06/14 11:38:26;;;;;;;2.40;1.20;;;;;;;49.82;11.72;92987.03;2045196;70;20157;-74
2022/06/14 11:40:59;;;;;;;1.30;1.00;;;;;;;49.56;10.78;92969.75;2041813;70;20235;-76
2022/06/14 11:43:54;;;;;;;1.13;0.90;;;;;;;50.11;10.83;92976.97;2045415;70;20141;-76
2022/06/14 11:46:51;;;;;;;1.55;1.00;;;;;;;49.79;10.67;92973.81;2045202;70;20190;-77
2022/06/14 11:49:46;;;;;;;3.17;1.10;;;;;;;50.95;11.03;92963.56;2045511;70;20146;-74
2022/06/14 11:52:16;;;;;;;2.58;1.00;;;;;;;48.08;10.83;92958.75;2049338;69;20170;-75
2022/06/14 11:55:11;;;;;;;1.10;1.00;;;;;;;49.97;9.48;92962.56;2045326;70;20234;-75
2022/06/14 11:57:55;;;;;;;1.55;1.00;;;;;;;46.86;9.98;92942.69;2050317;70;20150;-77
2022/06/14 12:00:27;;;;;;;1.95;1.00;;;;;;;47.49;10.24;92934.22;2048514;70;20138;-76
2022/06/14 12:03:11;;;;;;;2.47;1.13;;;;;;;45.27;12.69;92929.50;2048496;70;20135;-76
2022/06/14 12:06:36;;;;;;;3.40;1.15;;;;;;;43.27;12.69;92918.59;2048435;70;20158;-76
2022/06/14 12:09:19;;;;;;;4.15;1.08;;;;;;;41.69;14.35;92905.41;2050400;70;20611;-74
2022/06/14 12:11:55;;;;;;;2.03;0.90;;;;;;;39.74;16.27;92899.72;2046192;70;20784;-74
2022/06/14 12:14:23;;;;;;;1.50;0.90;;;;;;;38.94;17.43;92895.94;2041557;70;20242;-73
2022/06/14 12:17:09;;;;;;;2.92;1.00;;;;;;;38.15;17.95;92889.66;2048089;70;20174;-74
2022/06/14 12:19:36;;;;;;;1.73;0.90;;;;;;;36.84;17.03;92890.25;2047411;70;20182;-74
2022/06/14 12:22:28;;;;;;;2.05;0.90;;;;;;;36.44;18.45;92883.59;2045447;70;20154;-75
2022/06/14 12:28:05;;;;;;;2.00;0.90;;;;;;;35.77;20.18;92872.53;2042532;70;20143;-74
2022/06/14 12:30:35;;;;;;;1.00;0.85;;;;;;;34.84;17.95;92870.88;2045513;70;20182;-75
2022/06/14 12:33:29;;;;;;;1.55;0.90;;;;;;;35.33;16.64;92862.91;2048820;70;20610;-76
2022/06/14 12:36:23;;;;;;;2.10;0.90;;;;;;;34.77;17.71;92854.97;2048754;70;20226;-75
2022/06/14 12:38:52;;;;;;;1.77;0.98;;;;;;;33.33;19.54;92853.47;2048860;70;20305;-75
2022/06/14 12:41:34;;;;;;;2.97;1.10;;;;;;;33.39;19.55;92859.88;2048696;70;20151;-74
2022/06/14 12:44:31;;;;;;;3.08;1.08;;;;;;;32.93;19.20;92858.00;2044023;70;20624;-75
2022/06/14 12:47:03;;;;;;;3.42;1.00;;;;;;;32.65;18.49;92845.41;2048011;70;20523;-74